Time;durP1;ratioP1;P1;durP2;ratioP2;P2;SDS_P1;SDS_P2;PMS_P1;PMS_P2;Temp;Humidity;BMP_temperature;BMP_pressure;BME280_temperature;BME280_humidity;BME280_pressure;Samples;Min_cycle;Max_cycle;Signal;HPM_P1;HPM_P2
2023/02/23 00:00:13;;;;;;;;;;;;;;;28.08;63.25;101122.00;5089210;27;66420;-41
2023/02/23 00:02:44;;;;;;;;;;;;;;;28.12;63.34;101120.59;5092453;27;70150;-39
2023/02/23 00:05:15;;;;;;;;;;;;;;;28.16;63.54;101123.72;5090198;27;66423;-41
2023/02/23 00:07:45;;;;;;;;;;;;;;;28.22;63.58;101125.63;5090491;27;70039;-40
2023/02/23 00:10:17;;;;;;;;;;;;;;;28.24;63.71;101126.28;5091698;27;66997;-39
2023/02/23 00:12:50;;;;;;;;;;;;;;;28.28;64.20;101135.66;5094586;27;70050;-39
2023/02/23 00:15:20;;;;;;;;;;;;;;;28.32;64.47;101136.91;5077377;27;66571;-40
2023/02/23 00:17:50;;;;;;;;;;;;;;;28.35;65.01;101139.22;5088507;27;70032;-40
2023/02/23 00:20:26;;;;;;;;;;;;;;;28.32;64.23;101136.09;5076375;28;66910;-40
2023/02/23 00:22:56;;;;;;;;;;;;;;;28.35;64.18;101149.19;5091347;27;69866;-42
2023/02/23 00:25:29;;;;;;;;;;;;;;;28.35;64.38;101147.31;5096082;27;65227;-41
2023/02/23 00:28:00;;;;;;;;;;;;;;;28.38;63.75;101149.63;5085124;27;69772;-40
2023/02/23 00:30:30;;;;;;;;;;;;;;;28.38;63.90;101152.31;5093336;27;66657;-40
2023/02/23 00:33:00;;;;;;;;;;;;;;;28.40;63.59;101155.66;5077548;27;69241;-41
2023/02/23 00:35:32;;;;;;;;;;;;;;;28.42;63.28;101152.78;5052470;28;66424;-40
2023/02/23 00:38:02;;;;;;;;;;;;;;;28.43;63.68;101159.84;5074179;27;70530;-39
2023/02/23 00:40:33;;;;;;;;;;;;;;;28.44;63.38;101162.34;5095513;27;65349;-44
2023/02/23 00:43:03;;;;;;;;;;;;;;;28.45;63.44;101153.22;5052698;27;69460;-45
2023/02/23 00:45:35;;;;;;;;;;;;;;;28.47;63.54;101164.69;5083105;27;66107;-43
2023/02/23 00:48:09;;;;;;;;;;;;;;;28.48;63.05;101166.34;5075905;27;70223;-44
2023/02/23 00:50:40;;;;;;;;;;;;;;;28.52;63.39;101170.28;5097954;27;67220;-41
2023/02/23 00:53:10;;;;;;;;;;;;;;;28.49;63.13;101162.59;5059163;27;69818;-41
2023/02/23 00:55:41;;;;;;;;;;;;;;;28.44;62.16;101162.34;5080965;27;66917;-39
2023/02/23 00:58:12;;;;;;;;;;;;;;;28.45;61.40;101164.03;5097944;27;70536;-41
2023/02/23 01:00:43;;;;;;;;;;;;;;;28.47;61.34;101172.78;5095928;27;66148;-39
2023/02/23 01:03:13;;;;;;;;;;;;;;;28.47;61.51;101172.78;5092885;27;70281;-40
2023/02/23 01:05:45;;;;;;;;;;;;;;;28.49;60.93;101169.84;5089796;27;66997;-42
2023/02/23 01:08:16;;;;;;;;;;;;;;;28.51;60.67;101174.03;5086480;27;69679;-41
2023/02/23 01:10:53;;;;;;;;;;;;;;;28.51;60.94;101168.63;5091699;27;66750;-40
2023/02/23 01:13:23;;;;;;;;;;;;;;;28.52;60.12;101164.88;5095466;27;69808;-40
2023/02/23 01:15:54;;;;;;;;;;;;;;;28.55;60.18;101176.34;5098914;27;65813;-40
2023/02/23 01:18:25;;;;;;;;;;;;;;;28.56;59.97;101181.53;5097231;27;69058;-40
2023/02/23 01:20:56;;;;;;;;;;;;;;;28.56;59.88;101176.16;5074642;27;66958;-40
2023/02/23 01:23:26;;;;;;;;;;;;;;;28.59;59.96;101180.31;5095780;27;70509;-40
2023/02/23 01:25:56;;;;;;;;;;;;;;;28.58;59.48;101179.47;5095237;27;66597;-43
2023/02/23 01:28:27;;;;;;;;;;;;;;;28.60;59.42;101185.50;5096028;27;70832;-41
2023/02/23 01:30:57;;;;;;;;;;;;;;;28.61;59.26;101179.09;5091879;27;66087;-40
2023/02/23 01:33:28;;;;;;;;;;;;;;;28.63;59.21;101186.97;5094568;27;69719;-40
2023/02/23 01:35:59;;;;;;;;;;;;;;;28.65;59.07;101190.31;5081447;27;66374;-40
2023/02/23 01:38:28;;;;;;;;;;;;;;;28.65;59.25;101190.31;5091903;27;70314;-40
2023/02/23 01:40:58;;;;;;;;;;;;;;;28.67;58.87;101193.66;5091156;27;66694;-40
2023/02/23 01:43:29;;;;;;;;;;;;;;;28.68;59.26;101195.31;5083229;27;69215;-40
2023/02/23 01:45:59;;;;;;;;;;;;;;;28.70;58.92;101198.66;5100150;27;66598;-40
2023/02/23 01:48:35;;;;;;;;;;;;;;;28.71;58.66;101189.53;5100179;27;70162;-40
2023/02/23 01:51:17;;;;;;;;;;;;;;;28.73;58.76;101192.88;5072014;27;66288;-40
2023/02/23 01:53:51;;;;;;;;;;;;;;;28.75;58.59;101193.47;5095689;27;69440;-40
2023/02/23 01:56:25;;;;;;;;;;;;;;;28.76;58.58;101195.16;5091185;27;65382;-40
2023/02/23 01:58:57;;;;;;;;;;;;;;;28.77;58.44;101194.13;5082152;27;69862;-40
2023/02/23 02:01:28;;;;;;;;;;;;;;;28.79;58.81;101202.88;5080589;27;66077;-43
2023/02/23 02:04:05;;;;;;;;;;;;;;;28.80;58.60;101207.22;5074787;27;70452;-41
2023/02/23 02:06:36;;;;;;;;;;;;;;;28.82;58.83;101207.88;5092830;27;65872;-41
2023/02/23 02:09:15;;;;;;;;;;;;;;;28.83;58.30;101198.72;5071065;27;69785;-41
2023/02/23 02:11:52;;;;;;;;;;;;;;;28.85;58.43;101204.75;5092777;27;66634;-41
2023/02/23 02:14:27;;;;;;;;;;;;;;;28.88;58.16;101209.75;5078187;27;69405;-42
2023/02/23 02:17:03;;;;;;;;;;;;;;;28.89;58.04;101206.06;5091502;27;66671;-41
2023/02/23 02:19:36;;;;;;;;;;;;;;;28.92;58.51;101202.13;5094834;27;69972;-40
2023/02/23 02:22:24;;;;;;;;;;;;;;;28.93;58.29;101206.47;5094777;27;66660;-40
2023/02/23 02:24:54;;;;;;;;;;;;;;;28.95;58.45;101213.34;5092978;27;71148;-40
2023/02/23 02:27:43;;;;;;;;;;;;;;;28.98;57.85;101208.59;5062555;27;65215;-39
2023/02/23 02:30:21;;;;;;;;;;;;;;;28.99;58.24;101202.13;5084323;27;69891;-41
2023/02/23 02:33:16;;;;;;;;;;;;;;;29.02;58.21;101207.97;5074340;28;67061;-39
2023/02/23 02:36:01;;;;;;;;;;;;;;;29.04;58.13;101211.34;5081776;27;69798;-40
2023/02/23 02:38:52;;;;;;;;;;;;;;;29.06;57.51;101206.59;5088480;27;65180;-39
2023/02/23 02:41:23;;;;;;;;;;;;;;;29.09;57.51;101197.25;5073490;27;70386;-40
2023/02/23 02:44:10;;;;;;;;;;;;;;;29.11;57.73;101200.56;5097622;27;65420;-40
2023/02/23 02:46:46;;;;;;;;;;;;;;;29.14;58.03;101197.44;5090795;27;69749;-41
2023/02/23 02:49:19;;;;;;;;;;;;;;;29.16;57.86;101192.69;5090809;27;66357;-41
2023/02/23 02:51:52;;;;;;;;;;;;;;;29.17;57.62;101183.56;5084118;27;70307;-41
2023/02/23 02:54:26;;;;;;;;;;;;;;;29.20;57.68;101176.91;5094945;27;66752;-39
2023/02/23 02:56:59;;;;;;;;;;;;;;;29.23;57.64;101181.94;5083059;27;69625;-40
2023/02/23 04:17:52;;;;;;;;;;;;;;;30.00;55.23;101037.28;5097733;27;70874;-41
2023/02/23 04:20:23;;;;;;;;;;;;;;;30.02;54.95;101024.41;5091698;27;66756;-41
2023/02/23 04:22:53;;;;;;;;;;;;;;;30.05;55.44;101023.97;5090716;27;69750;-40
2023/02/23 04:25:25;;;;;;;;;;;;;;;30.09;54.81;101025.22;5064748;27;65936;-43
2023/02/23 04:27:56;;;;;;;;;;;;;;;30.11;54.71;101012.31;5073432;27;69825;-43
2023/02/23 04:30:27;;;;;;;;;;;;;;;30.14;54.87;101003.75;5098593;27;65935;-42
2023/02/23 04:32:58;;;;;;;;;;;;;;;30.17;55.15;101003.34;5081272;27;69827;-42
2023/02/23 04:35:30;;;;;;;;;;;;;;;30.19;54.62;100992.31;5091569;27;67009;-40
2023/02/23 04:38:00;;;;;;;;;;;;;;;30.22;54.55;100992.72;5093111;27;69754;-41
2023/02/23 04:40:30;;;;;;;;;;;;;;;30.25;54.59;100986.88;5098164;27;66078;-43
2023/02/23 04:43:00;;;;;;;;;;;;;;;30.28;55.01;100978.38;5097665;27;70358;-41
2023/02/23 04:45:30;;;;;;;;;;;;;;;30.31;54.65;100973.56;5093643;27;65717;-42
2023/02/23 04:48:00;;;;;;;;;;;;;;;30.33;54.88;100971.47;5096862;27;70320;-40
2023/02/23 04:50:31;;;;;;;;;;;;;;;30.35;54.71;100959.41;5099379;27;66440;-41
2023/02/23 04:53:00;;;;;;;;;;;;;;;30.38;54.14;100958.97;5072728;27;69424;-41
2023/02/23 04:55:31;;;;;;;;;;;;;;;30.41;54.43;100963.13;5086184;27;65741;-42
2023/02/23 04:58:01;;;;;;;;;;;;;;;30.43;54.25;100955.63;5095225;27;69221;-41
2023/02/23 05:00:32;;;;;;;;;;;;;;;30.45;54.47;100948.09;5101187;27;66862;-41
2023/02/23 05:03:02;;;;;;;;;;;;;;;30.46;54.24;100941.66;5086325;27;68618;-41
2023/02/23 05:05:32;;;;;;;;;;;;;;;30.48;54.38;100939.56;5080155;27;65640;-41
2023/02/23 05:08:02;;;;;;;;;;;;;;;30.50;54.51;100929.31;5086416;27;70024;-41
2023/02/23 05:10:32;;;;;;;;;;;;;;;30.50;54.34;100930.16;5065239;27;66172;-41
2023/02/23 05:13:02;;;;;;;;;;;;;;;30.53;54.43;100928.91;5098058;27;70217;-42
2023/02/23 05:15:32;;;;;;;;;;;;;;;30.55;53.81;100915.97;5089038;27;66664;-40
2023/02/23 05:18:02;;;;;;;;;;;;;;;30.57;54.22;100911.19;5090588;27;70369;-41
2023/02/23 05:20:32;;;;;;;;;;;;;;;30.60;53.80;100902.63;5099140;27;66927;-41
2023/02/23 05:23:03;;;;;;;;;;;;;;;30.61;53.78;100903.44;5076659;28;69940;-41
2023/02/23 05:25:33;;;;;;;;;;;;;;;30.61;53.79;100904.28;5092930;27;66677;-41
2023/02/23 05:28:03;;;;;;;;;;;;;;;30.64;53.68;100898.41;5088781;27;69713;-41
2023/02/23 05:30:33;;;;;;;;;;;;;;;30.66;54.05;100898.22;5096034;27;66894;-40
2023/02/23 05:33:03;;;;;;;;;;;;;;;30.69;54.14;100885.06;5076241;27;70277;-41
2023/02/23 05:35:34;;;;;;;;;;;;;;;30.71;53.73;100882.97;5092352;27;66187;-40
2023/02/23 05:38:04;;;;;;;;;;;;;;;30.73;53.78;100877.34;5092512;27;69876;-41
2023/02/23 05:40:35;;;;;;;;;;;;;;;30.76;53.43;100867.94;5091622;27;66307;-41
2023/02/23 05:43:05;;;;;;;;;;;;;;;30.78;53.74;100868.53;5092550;27;70192;-40
2023/02/23 05:45:39;;;;;;;;;;;;;;;30.79;53.30;100862.09;5091323;27;66007;-40
2023/02/23 05:48:09;;;;;;;;;;;;;;;30.81;53.61;100862.72;5092425;27;70247;-42
2023/02/23 05:50:39;;;;;;;;;;;;;;;30.83;53.54;100860.63;5077678;27;66403;-40
2023/02/23 05:53:09;;;;;;;;;;;;;;;30.86;53.64;100852.06;5075943;27;68970;-41
2023/02/23 05:55:39;;;;;;;;;;;;;;;30.86;53.25;100850.19;5094995;27;67087;-40
2023/02/23 05:58:09;;;;;;;;;;;;;;;30.89;53.23;100851.63;5073082;27;70090;-40
2023/02/23 06:00:40;;;;;;;;;;;;;;;30.65;53.32;100808.03;5094169;27;66417;-41
2023/02/23 06:03:09;;;;;;;;;;;;;;;30.92;53.40;100845.75;5094992;27;69228;-40
2023/02/23 06:05:40;;;;;;;;;;;;;;;30.93;52.89;100832.00;5090950;27;65988;-43
2023/02/23 06:08:11;;;;;;;;;;;;;;;30.95;53.32;100829.06;5094723;27;69510;-42
2023/02/23 06:10:41;;;;;;;;;;;;;;;30.99;52.81;100824.88;5094703;27;66296;-40
2023/02/23 06:13:11;;;;;;;;;;;;;;;31.01;53.11;100816.50;5068170;27;70297;-40
2023/02/23 06:15:42;;;;;;;;;;;;;;;31.03;52.81;100812.50;5093503;27;66426;-40
2023/02/23 06:18:12;;;;;;;;;;;;;;;31.04;52.85;100819.63;5099505;27;70049;-40
2023/02/23 06:20:42;;;;;;;;;;;;;;;31.07;52.92;100802.91;5097734;27;65436;-41
2023/02/23 06:23:14;;;;;;;;;;;;;;;31.09;52.83;100795.41;5077813;27;69415;-40
2023/02/23 06:25:45;;;;;;;;;;;;;;;31.11;52.65;100790.56;5089970;27;66485;-40
2023/02/23 06:28:15;;;;;;;;;;;;;;;31.13;52.73;100782.22;5101638;27;69117;-42
2023/02/23 06:30:45;;;;;;;;;;;;;;;31.15;52.60;100790.97;5099900;27;67093;-41
2023/02/23 06:33:15;;;;;;;;;;;;;;;31.15;52.32;100780.94;5100599;27;69913;-41
2023/02/23 06:35:45;;;;;;;;;;;;;;;31.17;52.56;100778.00;5072770;27;66647;-40
2023/02/23 06:38:15;;;;;;;;;;;;;;;31.21;52.59;100778.41;5069105;27;70186;-41
2023/02/23 06:40:45;;;;;;;;;;;;;;;31.21;52.36;100778.41;5096242;27;65233;-42
2023/02/23 06:43:15;;;;;;;;;;;;;;;31.22;52.35;100769.19;5099960;27;68697;-41
2023/02/23 06:45:46;;;;;;;;;;;;;;;31.23;52.52;100771.69;5092847;27;65766;-41
2023/02/23 06:48:16;;;;;;;;;;;;;;;31.25;52.28;100768.75;5093113;27;70628;-40
2023/02/23 06:50:46;;;;;;;;;;;;;;;31.26;52.40;100767.69;5084675;27;66740;-41
2023/02/23 06:53:17;;;;;;;;;;;;;;;31.28;52.33;100765.56;5088341;27;70265;-41
2023/02/23 06:55:47;;;;;;;;;;;;;;;31.29;52.38;100759.13;5102534;27;65438;-40
2023/02/23 06:58:17;;;;;;;;;;;;;;;31.31;52.07;100762.41;5092686;27;68393;-40
2023/02/23 07:00:47;;;;;;;;;;;;;;;31.32;52.52;100758.66;5079652;27;67208;-41
2023/02/23 07:03:18;;;;;;;;;;;;;;;31.33;52.08;100754.91;5100322;27;70865;-41
2023/02/23 07:05:51;;;;;;;;;;;;;;;31.34;52.34;100756.53;5086345;27;66395;-40
2023/02/23 07:08:21;;;;;;;;;;;;;;;31.35;52.10;100753.63;5077615;27;69973;-41
2023/02/23 07:10:51;;;;;;;;;;;;;;;31.37;52.41;100750.69;5079857;27;66113;-40
2023/02/23 07:13:21;;;;;;;;;;;;;;;31.38;52.12;100749.66;5093543;27;70316;-41
2023/02/23 07:15:56;;;;;;;;;;;;;;;31.38;52.20;100747.78;5096358;27;66749;-41
2023/02/23 07:18:26;;;;;;;;;;;;;;;31.40;52.10;100739.44;5088701;27;70351;-42
2023/02/23 07:20:56;;;;;;;;;;;;;;;31.41;51.94;100738.34;5095191;27;67155;-42
2023/02/23 07:23:25;;;;;;;;;;;;;;;31.42;52.17;100737.28;5099198;27;70319;-41
2023/02/23 07:25:55;;;;;;;;;;;;;;;31.42;51.86;100737.28;5097749;27;67281;-42
2023/02/23 07:28:27;;;;;;;;;;;;;;;31.44;52.21;100732.47;5097363;27;68602;-40
2023/02/23 07:30:57;;;;;;;;;;;;;;;31.42;52.08;100726.44;5093451;27;66132;-41
2023/02/23 07:33:28;;;;;;;;;;;;;;;31.43;52.11;100728.13;5099246;27;69248;-40
2023/02/23 07:35:57;;;;;;;;;;;;;;;31.46;52.15;100730.38;5088866;27;65339;-40
2023/02/23 07:38:27;;;;;;;;;;;;;;;31.47;51.84;100729.31;5083086;27;70303;-40
2023/02/23 07:40:58;;;;;;;;;;;;;;;31.46;52.01;100722.25;5091078;27;66010;-40
2023/02/23 07:43:28;;;;;;;;;;;;;;;31.47;52.09;100723.88;5087582;27;70256;-42
2023/02/23 07:45:59;;;;;;;;;;;;;;;31.48;51.84;100727.41;5089953;27;65590;-41
2023/02/23 07:48:29;;;;;;;;;;;;;;;31.51;51.74;100718.81;5094621;27;70470;-41
2023/02/23 07:50:59;;;;;;;;;;;;;;;31.52;52.46;100721.31;5090220;27;65933;-40
2023/02/23 07:53:28;;;;;;;;;;;;;;;31.53;52.24;100717.53;5094212;27;69731;-41
2023/02/23 07:55:59;;;;;;;;;;;;;;;31.55;52.09;100720.88;5079984;27;66898;-41
2023/02/23 07:58:32;;;;;;;;;;;;;;;31.58;52.08;100714.16;5090696;27;70090;-40
2023/02/23 08:01:02;;;;;;;;;;;;;;;31.59;51.64;100722.06;5083264;27;66408;-41
2023/02/23 08:03:32;;;;;;;;;;;;;;;31.60;51.97;100717.47;5094563;27;70909;-42
2023/02/23 08:06:03;;;;;;;;;;;;;;;31.61;51.68;100719.94;5064993;27;66880;-41
2023/02/23 08:08:34;;;;;;;;;;;;;;;31.64;51.67;100723.25;5084849;27;69663;-41
2023/02/23 08:11:04;;;;;;;;;;;;;;;31.64;51.83;100723.25;5098027;27;66385;-41
2023/02/23 08:13:36;;;;;;;;;;;;;;;31.64;52.00;100724.09;5091063;27;69905;-42
2023/02/23 08:16:06;;;;;;;;;;;;;;;31.65;51.90;100719.47;5080693;27;65106;-43
2023/02/23 08:18:36;;;;;;;;;;;;;;;31.66;51.95;100719.25;5094343;27;70804;-44
2023/02/23 08:21:07;;;;;;;;;;;;;;;31.68;51.90;100724.44;5091317;27;66822;-46
2023/02/23 08:23:36;;;;;;;;;;;;;;;31.69;51.71;100723.41;5093406;27;69369;-42
2023/02/23 08:26:07;;;;;;;;;;;;;;;31.69;51.96;100712.56;5093422;27;66259;-41
2023/02/23 08:28:37;;;;;;;;;;;;;;;31.72;51.94;100725.66;5092770;27;69479;-41
2023/02/23 08:31:10;;;;;;;;;;;;;;;31.73;51.79;100719.16;5094697;27;66632;-41
2023/02/23 08:33:40;;;;;;;;;;;;;;;31.63;51.62;100691.78;5077042;27;70418;-41
2023/02/23 08:36:10;;;;;;;;;;;;;;;31.77;51.53;100718.47;5091701;27;65022;-43
2023/02/23 08:38:40;;;;;;;;;;;;;;;31.79;51.34;100719.09;5088932;27;70125;-41
2023/02/23 08:41:10;;;;;;;;;;;;;;;31.81;51.82;100719.66;5094972;27;66744;-40
2023/02/23 08:43:40;;;;;;;;;;;;;;;31.85;51.81;100716.50;5093692;27;69729;-42
2023/02/23 08:46:11;;;;;;;;;;;;;;;31.86;51.86;100710.84;5086771;27;67690;-41
2023/02/23 08:48:42;;;;;;;;;;;;;;;31.87;51.78;100719.81;5095871;27;70563;-41
2023/02/23 08:51:13;;;;;;;;;;;;;;;31.88;51.83;100714.16;5095262;27;66562;-42
2023/02/23 08:53:43;;;;;;;;;;;;;;;31.89;51.90;100718.50;5089777;27;69853;-40
2023/02/23 08:56:14;;;;;;;;;;;;;;;31.89;51.65;100718.50;5087441;27;67126;-42
2023/02/23 08:58:44;;;;;;;;;;;;;;;31.91;52.07;100713.72;5096564;27;69784;-41
2023/02/23 09:01:18;;;;;;;;;;;;;;;31.93;51.80;100716.19;5098065;27;59740;-40
2023/02/23 09:03:49;;;;;;;;;;;;;;;31.92;51.67;100715.38;5081011;27;69164;-41
2023/02/23 09:06:20;;;;;;;;;;;;;;;31.93;51.72;100717.03;5098791;27;66696;-40
2023/02/23 09:08:51;;;;;;;;;;;;;;;31.94;51.65;100717.88;5077474;27;69925;-41
2023/02/23 09:11:22;;;;;;;;;;;;;;;31.94;51.71;100724.09;5093887;27;66149;-42
2023/02/23 09:13:51;;;;;;;;;;;;;;;31.94;51.87;100729.53;5089215;27;70307;-40
2023/02/23 09:16:21;;;;;;;;;;;;;;;31.94;51.69;100718.69;5084991;27;66354;-42
2023/02/23 09:18:52;;;;;;;;;;;;;;;31.96;51.80;100722.00;5087125;27;69379;-41
2023/02/23 09:21:23;;;;;;;;;;;;;;;31.71;53.45;100729.44;5088257;27;66313;-42
2023/02/23 09:23:54;;;;;;;;;;;;;;;31.61;54.24;100725.38;5089230;27;69942;-41
2023/02/23 09:26:27;;;;;;;;;;;;;;;31.50;54.59;100728.03;5094834;27;67109;-41
2023/02/23 09:28:58;;;;;;;;;;;;;;;31.44;55.61;100735.19;5084199;27;70003;-41
2023/02/23 09:31:28;;;;;;;;;;;;;;;31.44;55.49;100739.78;5085822;27;65975;-42
2023/02/23 09:33:59;;;;;;;;;;;;;;;31.36;55.90;100732.78;5087303;27;69694;-40
2023/02/23 09:36:30;;;;;;;;;;;;;;;31.38;56.26;100742.34;5101338;27;66992;-40
2023/02/23 09:39:00;;;;;;;;;;;;;;;31.35;56.39;100736.53;5088150;27;69750;-40
2023/02/23 09:41:36;;;;;;;;;;;;;;;31.35;56.65;100752.78;5090622;27;66637;-43
2023/02/23 09:44:12;;;;;;;;;;;;;;;31.32;56.74;100748.66;5098666;27;69533;-41
2023/02/23 09:47:01;;;;;;;;;;;;;;;31.32;57.09;100742.41;5096084;27;66636;-41
2023/02/23 09:49:33;;;;;;;;;;;;;;;31.31;57.35;100741.56;5095191;27;70106;-41
2023/02/23 09:52:04;;;;;;;;;;;;;;;31.31;57.71;100741.56;5100494;27;67081;-43
2023/02/23 09:54:35;;;;;;;;;;;;;;;31.32;57.50;100737.00;5098960;27;69756;-40
2023/02/23 09:57:10;;;;;;;;;;;;;;;31.30;57.46;100741.81;5072775;27;65745;-41
2023/02/23 09:59:40;;;;;;;;;;;;;;;31.29;57.80;100746.41;5093621;27;70661;-40
2023/02/23 10:02:13;;;;;;;;;;;;;;;31.31;57.79;100748.88;5094141;27;66900;-42
2023/02/23 10:04:57;;;;;;;;;;;;;;;31.31;57.95;100752.41;5096294;27;70602;-42
2023/02/23 10:07:46;;;;;;;;;;;;;;;31.30;57.93;100744.50;5098287;27;65884;-42
2023/02/23 10:10:26;;;;;;;;;;;;;;;31.29;58.10;100754.53;5096581;27;70081;-40
2023/02/23 10:12:59;;;;;;;;;;;;;;;31.36;56.76;100754.47;5095333;27;66856;-43
2023/02/23 10:15:32;;;;;;;;;;;;;;;31.40;57.83;100755.69;5086487;27;69865;-41
2023/02/23 10:18:19;;;;;;;;;;;;;;;31.41;59.22;100767.34;5088370;27;66899;-43
2023/02/23 10:20:49;;;;;;;;;;;;;;;31.42;59.31;100769.00;5090090;27;69681;-42
2023/02/23 10:23:30;;;;;;;;;;;;;;;31.38;60.18;100764.03;5098365;27;66551;-40
2023/02/23 10:26:01;;;;;;;;;;;;;;;31.40;60.46;100771.94;5083853;27;69164;-42
2023/02/23 10:28:33;;;;;;;;;;;;;;;31.38;60.68;100774.06;5093843;27;66419;-43
2023/02/23 10:31:21;;;;;;;;;;;;;;;31.37;60.91;100784.06;5083803;27;69867;-40
2023/02/23 10:33:54;;;;;;;;;;;;;;;31.36;61.60;100792.41;5094583;27;65912;-42
2023/02/23 10:36:37;;;;;;;;;;;;;;;31.34;61.90;100791.78;5101030;27;69853;-40
2023/02/23 10:39:12;;;;;;;;;;;;;;;31.34;61.79;100797.19;5091549;27;66307;-42
2023/02/23 10:41:43;;;;;;;;;;;;;;;31.31;61.78;100798.47;5099488;27;70549;-41
2023/02/23 10:44:23;;;;;;;;;;;;;;;31.30;61.51;100799.53;5094549;27;66628;-41
2023/02/23 10:46:55;;;;;;;;;;;;;;;31.32;61.88;100807.44;5097316;27;70362;-42
2023/02/23 10:49:44;;;;;;;;;;;;;;;31.31;61.82;100808.50;5094071;27;65937;-40
2023/02/23 10:52:34;;;;;;;;;;;;;;;31.33;62.84;100809.09;5063025;27;69946;-41
2023/02/23 10:55:29;;;;;;;;;;;;;;;31.30;63.53;100806.84;5079165;27;66689;-40
2023/02/23 10:58:02;;;;;;;;;;;;;;;31.43;62.00;100811.34;5094131;27;70578;-41
2023/02/23 11:00:39;;;;;;;;;;;;;;;31.52;61.26;100813.50;5095534;27;66118;-41
2023/02/23 11:03:25;;;;;;;;;;;;;;;31.57;60.18;100810.94;5092509;27;69592;-40
2023/02/23 11:05:55;;;;;;;;;;;;;;;31.64;59.76;100821.69;5061400;27;66299;-40
2023/02/23 11:08:28;;;;;;;;;;;;;;;31.66;59.69;100818.78;5071273;27;68970;-41
2023/02/23 11:11:04;;;;;;;;;;;;;;;31.68;59.77;100816.63;5091820;27;66712;-40
2023/02/23 11:13:40;;;;;;;;;;;;;;;31.72;59.39;100826.00;5091097;27;70501;-41
2023/02/23 11:16:21;;;;;;;;;;;;;;;31.72;59.11;100823.28;5060754;27;66129;-40
2023/02/23 11:19:13;;;;;;;;;;;;;;;31.75;58.86;100828.25;5092759;27;70275;-40
2023/02/23 11:21:49;;;;;;;;;;;;;;;31.74;58.95;100827.44;5090769;27;66125;-40
2023/02/23 11:24:29;;;;;;;;;;;;;;;31.75;58.75;100828.25;5068185;27;69931;-41
2023/02/23 11:27:02;;;;;;;;;;;;;;;31.75;58.92;100825.53;5088530;27;65422;-42
2023/02/23 11:29:41;;;;;;;;;;;;;;;31.74;58.72;100829.31;5067473;27;70248;-40
2023/02/23 11:32:14;;;;;;;;;;;;;;;31.74;58.74;100837.44;5095791;27;66526;-42
2023/02/23 11:34:47;;;;;;;;;;;;;;;31.72;59.15;100828.72;5077491;27;69655;-40
2023/02/23 11:37:20;;;;;;;;;;;;;;;31.66;58.92;100830.44;5093805;27;66226;-46
2023/02/23 11:39:51;;;;;;;;;;;;;;;31.68;58.73;100832.91;5087793;27;70327;-41
2023/02/23 11:42:24;;;;;;;;;;;;;;;31.69;58.66;100837.28;5091191;27;66022;-40
2023/02/23 11:45:14;;;;;;;;;;;;;;;31.66;58.68;100845.88;5059362;27;70686;-40
2023/02/23 11:47:45;;;;;;;;;;;;;;;31.64;58.60;100848.00;5092567;27;66539;-40
2023/02/23 11:50:23;;;;;;;;;;;;;;;31.65;58.96;100849.63;5090725;27;70164;-40
2023/02/23 11:52:58;;;;;;;;;;;;;;;31.66;58.58;100851.31;5090501;27;66509;-40
2023/02/23 11:55:30;;;;;;;;;;;;;;;31.67;58.40;100858.38;5089932;27;70339;-42
2023/02/23 11:58:18;;;;;;;;;;;;;;;31.67;58.42;100852.97;5067918;27;65980;-41
2023/02/23 12:00:58;;;;;;;;;;;;;;;31.67;58.30;100853.78;5083974;27;70056;-43
2023/02/23 12:03:31;;;;;;;;;;;;;;;31.66;58.32;100862.16;5087445;27;66762;-43
2023/02/23 12:06:02;;;;;;;;;;;;;;;31.65;58.43;100865.91;5089047;27;69758;-41
2023/02/23 12:08:39;;;;;;;;;;;;;;;31.64;58.02;100858.84;5091254;27;66632;-40
2023/02/23 12:11:13;;;;;;;;;;;;;;;31.61;58.13;100860.94;5070035;27;69916;-41
2023/02/23 12:13:48;;;;;;;;;;;;;;;31.60;57.82;100859.28;5072992;27;66763;-41
2023/02/23 12:16:29;;;;;;;;;;;;;;;31.59;58.31;100868.50;5087303;27;70156;-43
2023/02/23 12:19:17;;;;;;;;;;;;;;;31.58;58.17;100877.66;5089506;27;66241;-41
2023/02/23 12:22:06;;;;;;;;;;;;;;;31.38;60.78;100877.06;5086259;27;70018;-41
2023/02/23 12:24:42;;;;;;;;;;;;;;;31.29;62.60;100884.63;5082545;27;66527;-42
2023/02/23 12:27:17;;;;;;;;;;;;;;;31.25;62.96;100882.56;5081979;27;69694;-42
2023/02/23 12:30:06;;;;;;;;;;;;;;;31.20;63.40;100887.81;5064558;27;65682;-42
2023/02/23 12:32:55;;;;;;;;;;;;;;;31.13;63.91;100886.00;5085256;27;68964;-43
2023/02/23 12:35:30;;;;;;;;;;;;;;;31.10;63.59;100894.56;5081839;27;65912;-39
2023/02/23 12:38:05;;;;;;;;;;;;;;;31.08;63.56;100896.66;5088239;27;69725;-40
2023/02/23 12:40:37;;;;;;;;;;;;;;;31.07;63.28;100897.72;5071201;27;65933;-39
2023/02/23 12:43:17;;;;;;;;;;;;;;;31.03;63.49;100907.34;5085166;27;70329;-46
2023/02/23 12:45:58;;;;;;;;;;;;;;;31.02;62.58;100913.81;5067880;27;66416;-39
2023/02/23 12:48:46;;;;;;;;;;;;;;;31.02;63.12;100916.53;5083224;27;70176;-40
2023/02/23 12:51:29;;;;;;;;;;;;;;;31.01;62.84;100909.47;5083644;27;66253;-42
2023/02/23 12:53:59;;;;;;;;;;;;;;;30.98;63.25;100920.75;5091237;27;70253;-42
2023/02/23 12:56:58;;;;;;;;;;;;;;;30.96;63.09;100922.00;5083269;27;66423;-41
2023/02/23 12:59:47;;;;;;;;;;;;;;;30.97;62.96;100934.50;5037478;27;70174;-42
2023/02/23 13:02:42;;;;;;;;;;;;;;;30.94;62.68;100935.75;5085806;27;65690;-40
2023/02/23 13:05:33;;;;;;;;;;;;;;;30.92;62.44;100943.25;5059964;27;69860;-40
2023/02/23 13:08:26;;;;;;;;;;;;;;;30.92;62.66;100943.25;5067837;27;65916;-42
2023/02/23 13:11:19;;;;;;;;;;;;;;;30.93;63.72;100944.94;5090709;27;69860;-41
2023/02/23 13:13:55;;;;;;;;;;;;;;;30.93;63.90;100942.22;5088323;27;65517;-42
2023/02/23 13:16:33;;;;;;;;;;;;;;;30.91;64.30;100934.31;5093450;27;69050;-41
2023/02/23 13:19:03;;;;;;;;;;;;;;;30.88;64.70;100947.47;5096462;27;65510;-39
2023/02/23 13:21:40;;;;;;;;;;;;;;;30.71;62.52;100947.97;5092934;27;70181;-43
2023/02/23 13:24:17;;;;;;;;;;;;;;;30.49;60.16;100949.34;5096049;27;66695;-41
2023/02/23 13:27:03;;;;;;;;;;;;;;;30.08;57.57;100915.34;5098016;27;69889;-42
2023/02/23 13:29:33;;;;;;;;;;;;;;;30.10;55.14;100950.31;5099675;27;66042;-42
2023/02/23 13:32:04;;;;;;;;;;;;;;;29.91;54.07;100947.44;5077750;27;70245;-43
2023/02/23 13:34:36;;;;;;;;;;;;;;;29.80;52.67;100943.50;5099154;27;66907;-44
2023/02/23 13:37:07;;;;;;;;;;;;;;;29.66;51.46;100950.00;5090970;27;69751;-40
2023/02/23 13:39:52;;;;;;;;;;;;;;;29.57;51.06;100956.63;5099566;27;65533;-41
2023/02/23 13:42:32;;;;;;;;;;;;;;;29.46;50.37;100959.97;5090347;27;70123;-41
2023/02/23 13:45:21;;;;;;;;;;;;;;;29.37;49.67;100965.59;5094716;27;66564;-41
2023/02/23 13:47:58;;;;;;;;;;;;;;;29.26;49.47;100966.22;5095224;27;69919;-41
2023/02/23 13:50:48;;;;;;;;;;;;;;;29.20;48.73;100964.34;5079380;27;65456;-42
2023/02/23 13:53:36;;;;;;;;;;;;;;;29.13;48.14;100969.72;5089084;27;70760;-44
2023/02/23 13:56:26;;;;;;;;;;;;;;;29.08;49.84;100969.50;5071100;27;65276;-42
2023/02/23 13:59:01;;;;;;;;;;;;;;;29.01;48.85;100973.22;5093283;27;70424;-48
2023/02/23 14:01:38;;;;;;;;;;;;;;;28.94;48.82;100979.41;5095294;27;66175;-41
2023/02/23 14:04:15;;;;;;;;;;;;;;;28.86;48.31;100976.94;5094432;27;70224;-42
2023/02/23 14:07:01;;;;;;;;;;;;;;;28.78;48.14;100974.44;5067530;27;66268;-41
2023/02/23 14:09:43;;;;;;;;;;;;;;;28.68;47.57;100980.19;5091965;27;68972;-39
2023/02/23 14:12:18;;;;;;;;;;;;;;;28.66;48.26;100976.84;5094155;27;67131;-39
2023/02/23 14:14:52;;;;;;;;;;;;;;;28.35;48.74;100931.47;5093927;27;69576;-42
2023/02/23 14:17:22;;;;;;;;;;;;;;;28.57;47.88;100977.25;5089648;27;66163;-40
2023/02/23 14:20:06;;;;;;;;;;;;;;;28.51;47.75;100984.31;5087837;27;70145;-39
2023/02/23 14:22:59;;;;;;;;;;;;;;;28.47;46.94;100989.28;5089513;27;66878;-39
2023/02/23 14:25:35;;;;;;;;;;;;;;;28.44;46.23;100989.66;5092688;27;70506;-39
2023/02/23 14:28:23;;;;;;;;;;;;;;;28.40;45.86;100988.38;5076055;27;65887;-39